createdAt,value
2018-09-18T00:00:36.910Z,14.54
2018-09-18T00:03:06.338Z,14.53
2018-09-18T00:05:35.651Z,14.44
2018-09-18T00:08:04.982Z,14.47
2018-09-18T00:10:34.201Z,14.48
2018-09-18T00:13:03.527Z,14.45
2018-09-18T00:15:32.837Z,14.48
2018-09-18T00:18:02.075Z,14.23
2018-09-18T00:20:31.417Z,14.25
2018-09-18T00:23:00.968Z,14.28
2018-09-18T00:25:30.268Z,14.25
2018-09-18T00:27:59.547Z,14.24
2018-09-18T00:30:30.822Z,14.42
2018-09-18T00:33:01.341Z,14.21
2018-09-18T00:35:31.048Z,14.16
2018-09-18T00:38:00.739Z,14.09
2018-09-18T00:40:30.164Z,14.06
2018-09-18T00:42:59.576Z,14.06
2018-09-18T00:45:29.066Z,14.08
2018-09-18T00:47:58.615Z,14.03
2018-09-18T00:50:28.334Z,13.96
2018-09-18T00:52:57.873Z,13.99
2018-09-18T00:55:28.422Z,13.99
2018-09-18T00:57:57.828Z,14.02
2018-09-18T01:00:27.121Z,14.00
2018-09-18T01:02:56.445Z,13.94
2018-09-18T01:05:25.839Z,13.91
2018-09-18T01:07:56.187Z,13.85
2018-09-18T01:10:25.799Z,13.73
2018-09-18T01:12:55.063Z,13.75
2018-09-18T01:15:25.748Z,13.62
2018-09-18T01:17:56.847Z,13.47
2018-09-18T01:20:28.650Z,13.53
2018-09-18T01:22:59.082Z,13.53
2018-09-18T01:25:28.446Z,13.51
2018-09-18T01:27:57.711Z,13.55
2018-09-18T01:30:27.152Z,13.55
2018-09-18T01:32:56.610Z,13.85
2018-09-18T01:35:26.087Z,13.48
2018-09-18T01:37:55.571Z,13.46
2018-09-18T01:40:24.850Z,13.49
2018-09-18T01:42:54.205Z,13.53
2018-09-18T01:45:23.685Z,13.49
2018-09-18T01:47:53.255Z,13.47
2018-09-18T01:50:22.609Z,13.40
2018-09-18T01:52:52.890Z,13.40
2018-09-18T01:55:22.057Z,13.43
2018-09-18T01:57:51.420Z,13.29
2018-09-18T02:00:20.689Z,13.30
2018-09-18T02:02:50.004Z,13.23
2018-09-18T02:05:19.007Z,13.24
2018-09-18T02:07:48.359Z,13.13
2018-09-18T02:10:17.642Z,13.13
2018-09-18T02:12:46.982Z,13.25
2018-09-18T02:15:16.846Z,13.20
2018-09-18T02:17:46.296Z,13.09
2018-09-18T02:20:15.719Z,13.13
2018-09-18T02:22:45.109Z,13.14
2018-09-18T02:25:14.444Z,13.17
2018-09-18T02:27:43.792Z,13.16
2018-09-18T02:30:13.122Z,13.13
2018-09-18T02:32:43.259Z,12.91
2018-09-18T02:35:12.685Z,12.90
2018-09-18T02:37:42.483Z,12.94
2018-09-18T02:40:11.760Z,12.99
2018-09-18T02:42:41.361Z,13.07
2018-09-18T02:45:11.172Z,13.08
2018-09-18T02:47:40.688Z,13.11
2018-09-18T02:50:10.494Z,13.20
2018-09-18T02:52:39.873Z,13.22
2018-09-18T02:55:09.202Z,13.25
2018-09-18T02:57:38.549Z,13.10
2018-09-18T03:00:07.920Z,13.07
2018-09-18T03:02:37.502Z,12.89
2018-09-18T03:05:07.567Z,12.86
2018-09-18T03:07:37.148Z,12.90
2018-09-18T03:10:06.828Z,12.77
2018-09-18T03:12:36.210Z,12.90
2018-09-18T03:15:05.483Z,12.85
2018-09-18T03:17:34.864Z,12.83
2018-09-18T03:20:04.080Z,12.76
2018-09-18T03:22:44.342Z,12.58
2018-09-18T03:25:13.809Z,12.70
2018-09-18T03:27:42.964Z,12.64
2018-09-18T03:30:12.606Z,12.62
2018-09-18T03:35:48.427Z,12.74
2018-09-18T03:38:18.087Z,12.68
2018-09-18T03:40:47.544Z,12.74
2018-09-18T03:43:17.167Z,12.64
2018-09-18T03:45:46.507Z,12.53
2018-09-18T03:48:15.796Z,12.33
2018-09-18T03:50:44.997Z,12.45
2018-09-18T03:53:14.371Z,12.55
2018-09-18T03:55:45.066Z,12.55
2018-09-18T03:58:14.493Z,12.53
2018-09-18T04:00:43.975Z,12.57
2018-09-18T04:03:13.350Z,12.70
2018-09-18T04:05:42.962Z,12.63
2018-09-18T04:08:12.472Z,12.33
2018-09-18T04:10:41.545Z,12.30
2018-09-18T04:13:10.979Z,12.41
2018-09-18T04:15:41.360Z,12.37
2018-09-18T04:18:11.953Z,12.42
2018-09-18T04:20:41.526Z,12.42
2018-09-18T04:23:12.133Z,12.37
2018-09-18T04:25:41.675Z,12.41
2018-09-18T04:28:11.286Z,12.37
2018-09-18T04:30:41.131Z,12.39
2018-09-18T04:33:10.715Z,12.43
2018-09-18T04:35:40.141Z,12.39
2018-09-18T04:38:09.712Z,12.31
2018-09-18T04:40:39.280Z,12.27
2018-09-18T04:43:09.138Z,12.24
2018-09-18T04:45:38.834Z,11.88
2018-09-18T04:48:09.172Z,12.02
2018-09-18T04:50:38.540Z,12.09
2018-09-18T04:53:08.492Z,12.32
2018-09-18T04:55:38.227Z,12.29
2018-09-18T04:58:08.324Z,12.28
2018-09-18T05:00:37.895Z,12.30
2018-09-18T05:03:07.366Z,12.34
2018-09-18T05:05:36.835Z,12.11
2018-09-18T05:08:06.349Z,11.99
2018-09-18T05:10:36.049Z,12.16
2018-09-18T05:13:05.466Z,12.19
2018-09-18T05:15:34.702Z,12.19
2018-09-18T05:18:04.365Z,12.45
2018-09-18T05:20:33.898Z,13.98
2018-09-18T05:23:03.586Z,15.43
2018-09-18T05:25:33.460Z,16.27
2018-09-18T05:28:03.307Z,17.14
2018-09-18T05:30:32.947Z,16.92
2018-09-18T05:33:02.455Z,16.89
2018-09-18T05:35:31.754Z,15.79
2018-09-18T05:38:02.626Z,14.81
2018-09-18T05:40:33.858Z,14.82
2018-09-18T05:43:03.460Z,14.51
2018-09-18T05:45:35.927Z,14.40
2018-09-18T05:48:09.259Z,14.53
2018-09-18T05:50:39.816Z,14.41
2018-09-18T05:53:11.023Z,14.20
2018-09-18T05:55:42.121Z,14.32
2018-09-18T05:58:13.090Z,14.50
2018-09-18T06:00:43.407Z,14.53
2018-09-18T06:03:14.038Z,14.55
2018-09-18T06:05:44.707Z,14.67
2018-09-18T06:08:15.409Z,14.67
2018-09-18T06:10:45.990Z,14.87
2018-09-18T06:13:15.967Z,14.99
2018-09-18T06:15:45.670Z,14.98
2018-09-18T06:18:17.972Z,14.88
2018-09-18T06:20:47.713Z,14.69
2018-09-18T06:23:18.861Z,14.97
2018-09-18T06:25:50.577Z,15.28
2018-09-18T06:28:22.610Z,15.39
2018-09-18T06:30:53.220Z,15.42
2018-09-18T06:33:24.722Z,15.39
2018-09-18T06:35:55.072Z,15.51
2018-09-18T06:38:24.680Z,15.50
2018-09-18T06:40:54.272Z,15.18
2018-09-18T06:43:24.144Z,15.54
2018-09-18T06:45:53.675Z,16.04
2018-09-18T06:48:23.648Z,15.66
2018-09-18T06:50:53.594Z,15.78
2018-09-18T06:53:22.980Z,16.09
2018-09-18T06:55:52.519Z,16.12
2018-09-18T06:58:22.061Z,16.55
2018-09-18T07:00:51.483Z,16.97
2018-09-18T07:03:20.810Z,17.13
2018-09-18T07:05:51.142Z,17.00
2018-09-18T07:08:20.639Z,17.20
2018-09-18T07:10:49.985Z,17.54
2018-09-18T07:13:20.508Z,17.37
2018-09-18T07:15:49.854Z,17.43
2018-09-18T07:18:19.346Z,17.69
2018-09-18T07:20:48.676Z,17.28
2018-09-18T07:23:18.117Z,17.76
2018-09-18T07:25:47.718Z,17.71
2018-09-18T07:28:17.301Z,18.37
2018-09-18T07:30:47.058Z,18.73
2018-09-18T07:33:16.355Z,19.05
2018-09-18T07:35:45.766Z,18.98
2018-09-18T07:38:15.132Z,19.09
2018-09-18T07:40:44.783Z,18.39
2018-09-18T07:43:14.264Z,18.79
2018-09-18T07:45:43.848Z,18.45
2018-09-18T07:48:13.403Z,19.12
2018-09-18T07:50:42.806Z,19.79
2018-09-18T07:53:12.136Z,20.09
2018-09-18T07:55:41.680Z,20.14
2018-09-18T07:58:11.018Z,20.30
2018-09-18T08:00:40.923Z,20.50
2018-09-18T08:03:10.465Z,20.09
2018-09-18T08:05:39.790Z,20.08
2018-09-18T08:08:09.224Z,20.33
2018-09-18T08:10:38.645Z,20.21
2018-09-18T08:13:08.061Z,20.24
2018-09-18T08:15:37.387Z,20.36
2018-09-18T08:18:06.789Z,20.89
2018-09-18T08:20:36.389Z,21.61
2018-09-18T08:23:05.876Z,21.70
2018-09-18T08:25:35.213Z,22.13
2018-09-18T08:28:04.566Z,22.01
2018-09-18T08:30:34.027Z,21.73
2018-09-18T08:33:03.297Z,22.01
2018-09-18T08:35:32.846Z,22.13
2018-09-18T08:38:02.312Z,22.48
2018-09-18T08:40:31.830Z,22.87
2018-09-18T08:43:01.185Z,22.29
2018-09-18T08:45:30.955Z,22.22
2018-09-18T08:48:00.317Z,22.62
2018-09-18T08:50:30.619Z,22.50
2018-09-18T08:53:00.057Z,23.03
2018-09-18T08:55:29.479Z,23.28
2018-09-18T08:57:59.026Z,23.12
2018-09-18T09:00:28.475Z,23.08
2018-09-18T09:02:57.734Z,23.33
2018-09-18T09:05:27.072Z,23.84
2018-09-18T09:07:56.343Z,23.70
2018-09-18T09:10:25.772Z,23.21
2018-09-18T09:12:55.049Z,23.80
2018-09-18T09:15:24.479Z,24.00
2018-09-18T09:17:53.796Z,23.27
2018-09-18T09:20:23.038Z,23.86
2018-09-18T09:22:53.486Z,23.81
2018-09-18T09:25:22.903Z,23.98
2018-09-18T09:27:52.320Z,24.53
2018-09-18T09:30:22.599Z,25.03
2018-09-18T09:32:51.949Z,24.49
2018-09-18T09:35:21.355Z,24.86
2018-09-18T09:37:50.830Z,25.46
2018-09-18T09:40:20.060Z,25.08
2018-09-18T09:42:49.431Z,25.11
2018-09-18T09:45:18.610Z,25.23
2018-09-18T09:47:48.064Z,24.30
2018-09-18T09:50:17.425Z,25.24
2018-09-18T09:52:46.902Z,25.23
2018-09-18T09:55:16.635Z,25.35
2018-09-18T09:57:46.057Z,25.54
2018-09-18T10:00:20.322Z,25.86
2018-09-18T10:02:49.955Z,26.28
2018-09-18T10:05:19.751Z,26.14
2018-09-18T10:07:49.267Z,25.59
2018-09-18T10:10:18.731Z,26.01
2018-09-18T10:12:48.004Z,26.10
2018-09-18T10:15:18.673Z,26.25
2018-09-18T10:17:48.231Z,25.98
2018-09-18T10:20:17.633Z,25.29
2018-09-18T10:22:47.236Z,25.99
2018-09-18T10:25:16.795Z,26.41
2018-09-18T10:27:46.301Z,26.47
2018-09-18T10:30:15.758Z,26.25
2018-09-18T10:32:46.017Z,26.13
2018-09-18T10:35:15.491Z,26.36
2018-09-18T10:37:45.085Z,26.64
2018-09-18T10:40:14.543Z,26.94
2018-09-18T10:42:44.475Z,27.06
2018-09-18T10:45:13.585Z,27.16
2018-09-18T10:47:43.020Z,27.33
2018-09-18T10:50:12.346Z,27.36
2018-09-18T10:52:43.238Z,27.22
2018-09-18T10:55:13.596Z,27.12
2018-09-18T10:57:42.886Z,26.80
2018-09-18T11:00:12.247Z,26.91
2018-09-18T11:02:41.616Z,26.68
2018-09-18T11:05:10.957Z,26.52
2018-09-18T11:07:41.279Z,26.66
2018-09-18T11:10:11.075Z,27.23
2018-09-18T11:12:41.407Z,27.58
2018-09-18T11:15:11.148Z,27.24
2018-09-18T11:17:40.969Z,27.12
2018-09-18T11:20:10.433Z,27.04
2018-09-18T11:22:39.886Z,27.34
2018-09-18T11:25:09.463Z,27.67
2018-09-18T11:27:38.922Z,27.57
2018-09-18T11:30:08.341Z,27.20
2018-09-18T11:32:38.088Z,27.74
2018-09-18T11:35:07.449Z,27.36
2018-09-18T11:37:36.873Z,27.44
2018-09-18T11:40:06.224Z,27.51
2018-09-18T11:42:35.448Z,27.85
2018-09-18T11:45:04.742Z,27.21
2018-09-18T11:47:35.682Z,27.73
2018-09-18T11:50:05.050Z,28.22
2018-09-18T11:52:35.893Z,28.66
2018-09-18T11:55:05.298Z,27.95
2018-09-18T11:57:35.892Z,28.04
2018-09-18T12:00:06.110Z,28.13
2018-09-18T12:02:35.550Z,28.30
2018-09-18T12:05:04.996Z,28.29
2018-09-18T12:07:34.489Z,28.42
2018-09-18T12:10:04.078Z,28.90
2018-09-18T12:12:33.526Z,28.57
2018-09-18T12:15:02.871Z,28.46
2018-09-18T12:17:33.305Z,28.29
2018-09-18T12:20:02.574Z,28.01
2018-09-18T12:22:32.185Z,28.59
2018-09-18T12:25:02.471Z,28.70
2018-09-18T12:27:31.972Z,28.49
2018-09-18T12:30:01.365Z,28.38
2018-09-18T12:32:30.842Z,28.53
2018-09-18T12:35:00.137Z,28.34
2018-09-18T12:37:30.360Z,28.25
2018-09-18T12:40:00.587Z,28.39
2018-09-18T12:42:30.165Z,27.98
2018-09-18T12:44:59.572Z,28.19
2018-09-18T12:47:29.356Z,28.36
2018-09-18T12:49:58.882Z,28.65
2018-09-18T12:52:28.125Z,28.58
2018-09-18T12:54:57.974Z,27.96
2018-09-18T12:57:28.007Z,28.32
2018-09-18T12:59:57.504Z,28.34
2018-09-18T13:02:27.105Z,28.27
2018-09-18T13:04:56.377Z,28.26
2018-09-18T13:07:26.334Z,28.52
2018-09-18T13:09:55.891Z,28.76
2018-09-18T13:12:25.979Z,28.10
2018-09-18T13:14:55.453Z,28.26
2018-09-18T13:17:24.914Z,28.46
2018-09-18T13:19:54.778Z,28.10
2018-09-18T13:22:24.156Z,28.39
2018-09-18T13:24:53.569Z,28.34
2018-09-18T13:27:22.837Z,28.14
2018-09-18T13:29:52.209Z,28.00
2018-09-18T13:32:21.563Z,28.13
2018-09-18T13:34:50.860Z,27.89
2018-09-18T13:37:20.121Z,28.12
2018-09-18T13:39:49.477Z,27.75
2018-09-18T13:42:18.743Z,27.96
2018-09-18T13:44:48.143Z,28.36
2018-09-18T13:47:17.637Z,28.06
2018-09-18T13:49:47.318Z,27.68
2018-09-18T13:52:16.810Z,28.05
2018-09-18T13:54:46.189Z,28.03
2018-09-18T13:57:15.776Z,28.01
2018-09-18T13:59:44.840Z,27.62
2018-09-18T14:02:14.332Z,27.79
2018-09-18T14:04:43.800Z,27.79
2018-09-18T14:07:13.160Z,27.88
2018-09-18T14:09:43.288Z,27.94
2018-09-18T14:12:12.650Z,28.19
2018-09-18T14:14:42.155Z,28.15
2018-09-18T14:17:11.511Z,28.01
2018-09-18T14:19:40.831Z,27.89
2018-09-18T14:22:10.296Z,28.14
2018-09-18T14:24:39.825Z,27.76
2018-09-18T14:27:09.416Z,27.72
2018-09-18T14:29:38.785Z,27.51
2018-09-18T14:32:08.273Z,27.71
2018-09-18T14:34:37.639Z,27.62
2018-09-18T14:37:07.378Z,27.92
2018-09-18T14:39:36.846Z,27.86
2018-09-18T14:42:06.350Z,27.60
2018-09-18T14:44:35.665Z,27.40
2018-09-18T14:47:05.030Z,27.50
2018-09-18T14:49:34.325Z,27.48
2018-09-18T14:52:03.770Z,27.62
2018-09-18T14:54:33.163Z,27.73
2018-09-18T14:57:02.582Z,27.55
2018-09-18T14:59:32.112Z,27.43
2018-09-18T15:02:01.470Z,27.59
2018-09-18T15:04:30.942Z,27.29
2018-09-18T15:07:00.417Z,27.19
2018-09-18T15:09:29.645Z,27.10
2018-09-18T15:11:58.913Z,26.89
2018-09-18T15:14:28.268Z,26.79
2018-09-18T15:16:57.512Z,26.67
2018-09-18T15:19:26.793Z,26.72
2018-09-18T15:21:56.204Z,26.62
2018-09-18T15:24:25.574Z,26.74
2018-09-18T15:26:55.884Z,26.55
2018-09-18T15:29:25.300Z,26.38
2018-09-18T15:31:54.605Z,26.16
2018-09-18T15:34:24.093Z,26.01
2018-09-18T15:36:53.621Z,25.91
2018-09-18T15:39:23.187Z,25.95
2018-09-18T15:41:52.560Z,25.82
2018-09-18T15:44:22.047Z,25.84
2018-09-18T15:46:51.412Z,25.58
2018-09-18T15:49:20.825Z,25.57
2018-09-18T15:51:50.344Z,25.54
2018-09-18T15:54:19.719Z,25.43
2018-09-18T15:56:49.398Z,25.47
2018-09-18T15:59:19.465Z,25.39
2018-09-18T16:01:48.910Z,25.17
2018-09-18T16:04:18.388Z,25.13
2018-09-18T16:06:47.862Z,24.73
2018-09-18T16:09:17.099Z,24.95
2018-09-18T16:11:46.534Z,24.92
2018-09-18T16:14:16.020Z,24.93
2018-09-18T16:16:45.689Z,24.79
2018-09-18T16:19:15.115Z,24.73
2018-09-18T16:21:44.551Z,24.64
2018-09-18T16:24:13.964Z,24.48
2018-09-18T16:26:43.457Z,24.30
2018-09-18T16:29:13.676Z,24.17
2018-09-18T16:31:42.740Z,24.02
2018-09-18T16:34:12.261Z,23.96
2018-09-18T16:36:41.772Z,23.59
2018-09-18T16:39:11.127Z,23.49
2018-09-18T16:41:41.610Z,23.50
2018-09-18T16:44:11.820Z,23.17
2018-09-18T16:46:41.407Z,22.93
2018-09-18T16:49:11.725Z,22.81
2018-09-18T16:51:41.078Z,22.82
2018-09-18T16:54:11.295Z,22.60
2018-09-18T16:56:40.866Z,22.50
2018-09-18T16:59:11.332Z,22.33
2018-09-18T17:01:42.126Z,22.25
2018-09-18T17:04:12.139Z,22.08
2018-09-18T17:06:42.292Z,22.11
2018-09-18T17:09:11.923Z,21.96
2018-09-18T17:11:41.169Z,21.95
2018-09-18T17:14:10.661Z,21.95
2018-09-18T17:16:39.823Z,21.70
2018-09-18T17:19:10.158Z,21.63
2018-09-18T17:21:39.235Z,21.47
2018-09-18T17:24:08.348Z,21.50
2018-09-18T17:26:37.438Z,21.40
2018-09-18T17:29:07.307Z,21.43
2018-09-18T17:31:36.429Z,21.31
2018-09-18T17:34:10.277Z,21.08
2018-09-18T17:36:39.983Z,20.92
2018-09-18T17:39:10.813Z,20.84
2018-09-18T17:41:40.190Z,20.82
2018-09-18T17:44:12.132Z,20.77
2018-09-18T17:46:41.203Z,20.71
2018-09-18T17:49:10.570Z,20.68
2018-09-18T17:51:39.783Z,20.59
2018-09-18T17:54:09.426Z,20.64
2018-09-18T17:56:38.609Z,20.66
2018-09-18T17:59:07.811Z,20.72
2018-09-18T18:01:37.003Z,20.77
2018-09-18T18:04:06.383Z,20.36
2018-09-18T18:06:35.750Z,20.41
2018-09-18T18:09:08.216Z,20.33
2018-09-18T18:11:38.454Z,20.53
2018-09-18T18:14:07.694Z,20.29
2018-09-18T18:16:36.823Z,20.17
2018-09-18T18:19:06.095Z,20.11
2018-09-18T18:21:36.639Z,20.10
2018-09-18T18:24:05.801Z,20.17
2018-09-18T18:26:35.594Z,20.08
2018-09-18T18:29:05.133Z,19.91
2018-09-18T18:31:34.962Z,19.86
2018-09-18T18:34:04.454Z,20.01
2018-09-18T18:36:34.075Z,19.85
2018-09-18T18:39:03.417Z,19.80
2018-09-18T18:41:33.441Z,19.73
2018-09-18T18:44:03.561Z,19.65
2018-09-18T18:46:33.085Z,19.64
2018-09-18T18:49:03.710Z,19.88
2018-09-18T18:51:32.906Z,19.78
2018-09-18T18:54:03.320Z,19.70
2018-09-18T18:56:33.159Z,19.69
2018-09-18T18:59:04.677Z,19.49
2018-09-18T19:01:35.007Z,19.46
2018-09-18T19:04:04.167Z,19.47
2018-09-18T19:06:34.615Z,19.55
2018-09-18T19:09:05.464Z,19.52
2018-09-18T19:11:36.159Z,19.40
2018-09-18T19:14:05.750Z,19.20
2018-09-18T19:16:35.459Z,19.33
2018-09-18T19:19:05.415Z,19.29
2018-09-18T19:21:35.815Z,19.12
2018-09-18T19:24:05.204Z,19.10
2018-09-18T19:26:42.585Z,19.10
2018-09-18T19:29:12.701Z,19.04
2018-09-18T19:31:42.241Z,19.19
2018-09-18T19:34:12.854Z,19.27
2018-09-18T19:36:42.478Z,19.08
2018-09-18T19:39:12.645Z,19.08
2018-09-18T19:41:42.734Z,19.10
2018-09-18T19:44:12.763Z,19.13
2018-09-18T19:46:43.261Z,19.13
2018-09-18T19:49:12.741Z,19.04
2018-09-18T19:51:42.198Z,19.07
2018-09-18T19:54:11.696Z,19.11
2018-09-18T19:56:41.162Z,18.98
2018-09-18T19:59:10.735Z,19.04
2018-09-18T20:01:40.208Z,19.19
2018-09-18T20:04:10.664Z,19.02
2018-09-18T20:06:40.971Z,18.88
2018-09-18T20:09:11.873Z,18.95
2018-09-18T20:11:41.260Z,18.97
2018-09-18T20:14:11.029Z,18.94
2018-09-18T20:16:40.529Z,18.92
2018-09-18T20:19:10.120Z,18.88
2018-09-18T20:21:39.453Z,18.88
2018-09-18T20:24:08.744Z,18.91
2018-09-18T20:26:38.270Z,19.08
2018-09-18T20:29:07.851Z,18.87
2018-09-18T20:31:37.502Z,18.64
2018-09-18T20:34:07.219Z,18.53
2018-09-18T20:36:37.073Z,18.57
2018-09-18T20:39:09.282Z,18.48
2018-09-18T20:41:38.709Z,18.50
2018-09-18T20:44:08.208Z,18.31
2018-09-18T20:46:37.451Z,18.41
2018-09-18T20:51:35.688Z,18.47
2018-09-18T20:54:04.796Z,18.54
2018-09-18T20:56:33.875Z,18.54
2018-09-18T20:59:03.044Z,18.57
2018-09-18T21:01:32.186Z,18.42
2018-09-18T21:04:01.339Z,18.49
2018-09-18T21:06:30.486Z,18.50
2018-09-18T21:08:59.702Z,18.34
2018-09-18T21:11:28.910Z,18.16
2018-09-18T21:13:57.974Z,18.19
2018-09-18T21:16:27.071Z,18.26
2018-09-18T21:18:56.188Z,18.29
2018-09-18T21:21:25.175Z,18.33
2018-09-18T21:23:54.256Z,18.25
2018-09-18T21:26:23.264Z,18.16
2018-09-18T21:28:52.457Z,18.27
2018-09-18T21:31:21.769Z,18.42
2018-09-18T21:33:50.791Z,18.53
2018-09-18T21:36:21.141Z,18.49
2018-09-18T21:38:50.207Z,18.48
2018-09-18T21:41:19.186Z,18.44
2018-09-18T21:43:48.305Z,18.37
2018-09-18T21:46:17.616Z,18.36
2018-09-18T21:48:46.599Z,18.38
2018-09-18T21:51:15.618Z,18.42
2018-09-18T21:53:44.710Z,18.47
2018-09-18T21:56:14.731Z,18.37
2018-09-18T21:58:44.893Z,18.27
2018-09-18T22:01:30.205Z,18.41
2018-09-18T22:03:59.695Z,18.53
2018-09-18T22:06:29.090Z,18.66
2018-09-18T22:08:58.348Z,18.61
2018-09-18T22:11:27.720Z,18.56
2018-09-18T22:13:56.982Z,18.62
2018-09-18T22:16:26.289Z,18.36
2018-09-18T22:18:55.997Z,18.65
2018-09-18T22:21:25.683Z,18.47
2018-09-18T22:23:55.142Z,18.19
2018-09-18T22:26:24.731Z,18.22
2018-09-18T22:28:54.033Z,18.18
2018-09-18T22:31:23.415Z,18.15
2018-09-18T22:33:53.255Z,18.43
2018-09-18T22:36:22.781Z,18.61
2018-09-18T22:38:52.047Z,18.81
2018-09-18T22:41:21.359Z,18.73
2018-09-18T22:43:50.602Z,18.82
2018-09-18T22:46:19.925Z,18.88
2018-09-18T22:48:49.255Z,18.78
2018-09-18T22:51:18.423Z,18.72
2018-09-18T22:53:47.880Z,18.82
2018-09-18T22:56:17.265Z,18.72
2018-09-18T22:58:46.081Z,18.57
2018-09-18T23:01:15.673Z,18.51
2018-09-18T23:03:45.209Z,18.49
2018-09-18T23:06:15.436Z,18.63
2018-09-18T23:08:45.162Z,18.55
2018-09-18T23:11:14.621Z,18.59
2018-09-18T23:13:44.009Z,18.51
2018-09-18T23:16:13.299Z,18.57
2018-09-18T23:18:42.760Z,18.56
2018-09-18T23:21:12.077Z,18.40
2018-09-18T23:23:41.517Z,18.40
2018-09-18T23:26:11.278Z,18.51
2018-09-18T23:28:40.889Z,18.26
2018-09-18T23:31:10.696Z,18.19
2018-09-18T23:33:40.044Z,18.12
2018-09-18T23:36:09.951Z,18.03
2018-09-18T23:38:39.230Z,17.91
2018-09-18T23:41:08.644Z,17.91
2018-09-18T23:43:38.142Z,17.65
2018-09-18T23:46:07.557Z,17.57
2018-09-18T23:48:36.741Z,17.42
2018-09-18T23:51:06.084Z,17.33
2018-09-18T23:53:36.066Z,17.29
2018-09-18T23:56:05.448Z,17.30
2018-09-18T23:58:34.745Z,17.28
